sensor_id;sensor_type;location;lat;lon;timestamp;P1;durP1;ratioP1;P2;durP2;ratioP2
13349;SDS011;6744;53.190;6.576;2022-07-12T00:01:28;3.13;;;2.93;;
13349;SDS011;6744;53.190;6.576;2022-07-12T00:03:53;2.60;;;2.40;;
13349;SDS011;6744;53.190;6.576;2022-07-12T00:06:18;2.60;;;2.40;;
13349;SDS011;6744;53.190;6.576;2022-07-12T00:08:44;2.30;;;2.20;;
13349;SDS011;6744;53.190;6.576;2022-07-12T00:11:09;2.40;;;2.20;;
13349;SDS011;6744;53.190;6.576;2022-07-12T00:13:34;3.33;;;3.10;;
13349;SDS011;6744;53.190;6.576;2022-07-12T00:16:00;2.83;;;2.63;;
13349;SDS011;6744;53.190;6.576;2022-07-12T00:18:25;2.43;;;2.23;;
13349;SDS011;6744;53.190;6.576;2022-07-12T00:20:51;2.60;;;2.40;;
13349;SDS011;6744;53.190;6.576;2022-07-12T00:23:16;2.17;;;2.07;;
13349;SDS011;6744;53.190;6.576;2022-07-12T00:25:42;2.50;;;2.40;;
13349;SDS011;6744;53.190;6.576;2022-07-12T00:28:07;2.30;;;2.20;;
13349;SDS011;6744;53.190;6.576;2022-07-12T00:30:33;3.03;;;2.73;;
13349;SDS011;6744;53.190;6.576;2022-07-12T00:32:58;2.90;;;2.70;;
13349;SDS011;6744;53.190;6.576;2022-07-12T00:35:24;2.67;;;2.47;;
13349;SDS011;6744;53.190;6.576;2022-07-12T00:37:49;3.20;;;3.00;;
13349;SDS011;6744;53.190;6.576;2022-07-12T00:40:14;3.60;;;3.40;;
13349;SDS011;6744;53.190;6.576;2022-07-12T00:42:40;3.13;;;2.93;;
13349;SDS011;6744;53.190;6.576;2022-07-12T00:45:05;3.30;;;3.10;;
13349;SDS011;6744;53.190;6.576;2022-07-12T00:47:33;3.10;;;2.80;;
13349;SDS011;6744;53.190;6.576;2022-07-12T00:50:09;3.10;;;2.90;;
13349;SDS011;6744;53.190;6.576;2022-07-12T00:52:36;2.83;;;2.60;;
13349;SDS011;6744;53.190;6.576;2022-07-12T00:55:02;2.60;;;2.40;;
13349;SDS011;6744;53.190;6.576;2022-07-12T00:57:28;2.50;;;2.30;;
13349;SDS011;6744;53.190;6.576;2022-07-12T00:59:54;2.70;;;2.50;;
13349;SDS011;6744;53.190;6.576;2022-07-12T01:02:19;3.30;;;3.00;;
13349;SDS011;6744;53.190;6.576;2022-07-12T01:04:45;3.17;;;2.97;;
13349;SDS011;6744;53.190;6.576;2022-07-12T01:07:10;2.80;;;2.60;;
13349;SDS011;6744;53.190;6.576;2022-07-12T01:09:36;3.23;;;2.93;;
13349;SDS011;6744;53.190;6.576;2022-07-12T01:12:04;3.10;;;2.90;;
13349;SDS011;6744;53.190;6.576;2022-07-12T01:14:29;3.37;;;3.17;;
13349;SDS011;6744;53.190;6.576;2022-07-12T01:16:55;2.87;;;2.67;;
13349;SDS011;6744;53.190;6.576;2022-07-12T01:19:21;2.70;;;2.50;;
13349;SDS011;6744;53.190;6.576;2022-07-12T01:21:48;2.20;;;2.10;;
13349;SDS011;6744;53.190;6.576;2022-07-12T01:24:14;2.10;;;1.93;;
13349;SDS011;6744;53.190;6.576;2022-07-12T01:26:40;2.60;;;2.40;;
13349;SDS011;6744;53.190;6.576;2022-07-12T01:29:06;2.70;;;2.50;;
13349;SDS011;6744;53.190;6.576;2022-07-12T01:31:33;2.30;;;2.13;;
13349;SDS011;6744;53.190;6.576;2022-07-12T01:33:59;2.30;;;2.20;;
13349;SDS011;6744;53.190;6.576;2022-07-12T01:36:25;1.87;;;1.77;;
13349;SDS011;6744;53.190;6.576;2022-07-12T01:38:50;2.17;;;2.07;;
13349;SDS011;6744;53.190;6.576;2022-07-12T01:41:16;2.20;;;2.00;;
13349;SDS011;6744;53.190;6.576;2022-07-12T01:43:41;2.30;;;2.10;;
13349;SDS011;6744;53.190;6.576;2022-07-12T01:46:07;2.00;;;1.80;;
13349;SDS011;6744;53.190;6.576;2022-07-12T01:48:32;2.03;;;1.93;;
13349;SDS011;6744;53.190;6.576;2022-07-12T01:50:57;2.40;;;2.20;;
13349;SDS011;6744;53.190;6.576;2022-07-12T01:53:23;2.53;;;2.40;;
13349;SDS011;6744;53.190;6.576;2022-07-12T01:55:48;2.87;;;2.67;;
13349;SDS011;6744;53.190;6.576;2022-07-12T01:58:14;2.60;;;2.40;;
13349;SDS011;6744;53.190;6.576;2022-07-12T02:00:40;3.00;;;2.50;;
13349;SDS011;6744;53.190;6.576;2022-07-12T02:03:05;3.13;;;2.93;;
13349;SDS011;6744;53.190;6.576;2022-07-12T02:05:30;3.37;;;3.07;;
13349;SDS011;6744;53.190;6.576;2022-07-12T02:07:56;2.80;;;2.50;;
13349;SDS011;6744;53.190;6.576;2022-07-12T02:10:21;2.57;;;2.37;;
13349;SDS011;6744;53.190;6.576;2022-07-12T02:12:46;2.53;;;2.33;;
13349;SDS011;6744;53.190;6.576;2022-07-12T02:15:12;3.07;;;2.87;;
13349;SDS011;6744;53.190;6.576;2022-07-12T02:17:37;3.80;;;2.67;;
13349;SDS011;6744;53.190;6.576;2022-07-12T02:20:03;3.70;;;3.20;;
13349;SDS011;6744;53.190;6.576;2022-07-12T02:22:29;3.00;;;2.80;;
13349;SDS011;6744;53.190;6.576;2022-07-12T02:24:54;3.30;;;3.00;;
13349;SDS011;6744;53.190;6.576;2022-07-12T02:27:19;2.80;;;2.60;;
13349;SDS011;6744;53.190;6.576;2022-07-12T02:29:45;2.80;;;2.60;;
13349;SDS011;6744;53.190;6.576;2022-07-12T02:32:11;2.37;;;2.17;;
13349;SDS011;6744;53.190;6.576;2022-07-12T02:34:36;2.83;;;2.63;;
13349;SDS011;6744;53.190;6.576;2022-07-12T02:37:01;2.33;;;2.23;;
13349;SDS011;6744;53.190;6.576;2022-07-12T02:39:27;2.17;;;2.03;;
13349;SDS011;6744;53.190;6.576;2022-07-12T02:41:53;2.67;;;2.47;;
13349;SDS011;6744;53.190;6.576;2022-07-12T02:44:18;3.47;;;3.27;;
13349;SDS011;6744;53.190;6.576;2022-07-12T02:46:44;3.60;;;3.30;;
13349;SDS011;6744;53.190;6.576;2022-07-12T02:49:10;3.17;;;2.97;;
13349;SDS011;6744;53.190;6.576;2022-07-12T02:51:35;2.90;;;2.70;;
13349;SDS011;6744;53.190;6.576;2022-07-12T02:54:00;3.20;;;3.00;;
13349;SDS011;6744;53.190;6.576;2022-07-12T02:56:26;3.70;;;3.20;;
13349;SDS011;6744;53.190;6.576;2022-07-12T02:58:52;3.87;;;3.57;;
13349;SDS011;6744;53.190;6.576;2022-07-12T03:01:17;3.20;;;3.00;;
13349;SDS011;6744;53.190;6.576;2022-07-12T03:03:42;4.20;;;3.80;;
13349;SDS011;6744;53.190;6.576;2022-07-12T03:06:08;3.80;;;3.50;;
13349;SDS011;6744;53.190;6.576;2022-07-12T03:08:33;4.03;;;3.70;;
13349;SDS011;6744;53.190;6.576;2022-07-12T03:10:59;3.87;;;3.57;;
13349;SDS011;6744;53.190;6.576;2022-07-12T03:13:24;4.73;;;4.43;;
13349;SDS011;6744;53.190;6.576;2022-07-12T03:15:50;5.03;;;4.63;;
13349;SDS011;6744;53.190;6.576;2022-07-12T03:18:16;5.03;;;4.63;;
13349;SDS011;6744;53.190;6.576;2022-07-12T03:20:42;4.37;;;3.97;;
13349;SDS011;6744;53.190;6.576;2022-07-12T03:23:07;4.27;;;3.97;;
13349;SDS011;6744;53.190;6.576;2022-07-12T03:25:33;4.27;;;3.97;;
13349;SDS011;6744;53.190;6.576;2022-07-12T03:27:58;4.20;;;3.90;;
13349;SDS011;6744;53.190;6.576;2022-07-12T03:30:24;4.33;;;3.97;;
13349;SDS011;6744;53.190;6.576;2022-07-12T03:32:50;4.27;;;3.93;;
13349;SDS011;6744;53.190;6.576;2022-07-12T03:35:15;5.10;;;4.70;;
13349;SDS011;6744;53.190;6.576;2022-07-12T03:40:16;5.57;;;5.17;;
13349;SDS011;6744;53.190;6.576;2022-07-12T03:42:43;5.97;;;5.50;;
13349;SDS011;6744;53.190;6.576;2022-07-12T03:45:09;5.13;;;4.73;;
13349;SDS011;6744;53.190;6.576;2022-07-12T03:47:35;5.87;;;5.37;;
13349;SDS011;6744;53.190;6.576;2022-07-12T03:50:05;6.17;;;5.67;;
13349;SDS011;6744;53.190;6.576;2022-07-12T03:52:32;5.80;;;5.40;;
13349;SDS011;6744;53.190;6.576;2022-07-12T03:54:58;6.03;;;5.53;;
13349;SDS011;6744;53.190;6.576;2022-07-12T03:57:24;6.83;;;6.20;;
13349;SDS011;6744;53.190;6.576;2022-07-12T03:59:51;6.30;;;5.80;;
13349;SDS011;6744;53.190;6.576;2022-07-12T04:02:16;6.03;;;5.53;;
13349;SDS011;6744;53.190;6.576;2022-07-12T04:04:42;6.83;;;6.23;;
13349;SDS011;6744;53.190;6.576;2022-07-12T04:07:07;7.83;;;7.13;;
13349;SDS011;6744;53.190;6.576;2022-07-12T04:09:33;7.47;;;6.87;;
13349;SDS011;6744;53.190;6.576;2022-07-12T04:11:58;6.30;;;5.80;;
13349;SDS011;6744;53.190;6.576;2022-07-12T04:14:23;6.33;;;5.80;;
13349;SDS011;6744;53.190;6.576;2022-07-12T04:16:49;5.20;;;4.80;;
13349;SDS011;6744;53.190;6.576;2022-07-12T04:19:14;4.83;;;4.53;;
13349;SDS011;6744;53.190;6.576;2022-07-12T04:21:39;5.17;;;4.77;;
13349;SDS011;6744;53.190;6.576;2022-07-12T04:24:05;6.07;;;5.57;;
13349;SDS011;6744;53.190;6.576;2022-07-12T04:26:31;6.93;;;6.33;;
13349;SDS011;6744;53.190;6.576;2022-07-12T04:28:56;6.40;;;5.83;;
13349;SDS011;6744;53.190;6.576;2022-07-12T04:31:22;6.17;;;5.67;;
13349;SDS011;6744;53.190;6.576;2022-07-12T04:33:48;5.27;;;4.87;;
13349;SDS011;6744;53.190;6.576;2022-07-12T04:36:13;5.40;;;5.00;;
13349;SDS011;6744;53.190;6.576;2022-07-12T04:38:38;5.67;;;5.27;;
13349;SDS011;6744;53.190;6.576;2022-07-12T04:41:04;5.53;;;5.03;;
13349;SDS011;6744;53.190;6.576;2022-07-12T04:43:29;5.13;;;4.73;;
13349;SDS011;6744;53.190;6.576;2022-07-12T04:45:54;5.60;;;5.10;;
13349;SDS011;6744;53.190;6.576;2022-07-12T04:48:20;6.17;;;5.67;;
13349;SDS011;6744;53.190;6.576;2022-07-12T04:50:45;7.60;;;6.90;;
13349;SDS011;6744;53.190;6.576;2022-07-12T04:53:10;7.33;;;6.63;;
13349;SDS011;6744;53.190;6.576;2022-07-12T04:55:36;7.77;;;7.07;;
13349;SDS011;6744;53.190;6.576;2022-07-12T04:58:02;7.60;;;6.83;;
13349;SDS011;6744;53.190;6.576;2022-07-12T05:00:29;8.70;;;7.90;;
13349;SDS011;6744;53.190;6.576;2022-07-12T05:02:54;7.93;;;7.23;;
13349;SDS011;6744;53.190;6.576;2022-07-12T05:05:20;6.73;;;6.13;;
13349;SDS011;6744;53.190;6.576;2022-07-12T05:07:45;6.00;;;5.50;;
13349;SDS011;6744;53.190;6.576;2022-07-12T05:10:10;6.07;;;5.57;;
13349;SDS011;6744;53.190;6.576;2022-07-12T05:12:36;5.53;;;5.00;;
13349;SDS011;6744;53.190;6.576;2022-07-12T05:15:02;5.60;;;5.10;;
13349;SDS011;6744;53.190;6.576;2022-07-12T05:17:30;4.77;;;4.37;;
13349;SDS011;6744;53.190;6.576;2022-07-12T05:19:56;4.43;;;4.03;;
13349;SDS011;6744;53.190;6.576;2022-07-12T05:22:21;4.77;;;4.37;;
13349;SDS011;6744;53.190;6.576;2022-07-12T05:24:47;4.43;;;4.03;;
13349;SDS011;6744;53.190;6.576;2022-07-12T05:27:12;4.70;;;4.33;;
13349;SDS011;6744;53.190;6.576;2022-07-12T05:29:37;4.93;;;4.53;;
13349;SDS011;6744;53.190;6.576;2022-07-12T05:32:03;5.07;;;4.67;;
13349;SDS011;6744;53.190;6.576;2022-07-12T05:34:29;5.80;;;5.30;;
13349;SDS011;6744;53.190;6.576;2022-07-12T05:36:54;5.43;;;4.93;;
13349;SDS011;6744;53.190;6.576;2022-07-12T05:39:19;5.03;;;4.63;;
13349;SDS011;6744;53.190;6.576;2022-07-12T05:41:45;4.37;;;4.07;;
13349;SDS011;6744;53.190;6.576;2022-07-12T05:44:11;4.40;;;4.10;;
13349;SDS011;6744;53.190;6.576;2022-07-12T05:46:37;5.20;;;4.80;;
13349;SDS011;6744;53.190;6.576;2022-07-12T05:49:03;4.27;;;3.97;;
13349;SDS011;6744;53.190;6.576;2022-07-12T05:51:28;4.70;;;4.30;;
13349;SDS011;6744;53.190;6.576;2022-07-12T05:54:12;4.93;;;4.37;;
13349;SDS011;6744;53.190;6.576;2022-07-12T05:56:37;4.77;;;4.30;;
13349;SDS011;6744;53.190;6.576;2022-07-12T05:59:02;5.03;;;4.63;;
13349;SDS011;6744;53.190;6.576;2022-07-12T06:01:28;4.63;;;4.23;;
13349;SDS011;6744;53.190;6.576;2022-07-12T06:03:53;5.03;;;4.63;;
13349;SDS011;6744;53.190;6.576;2022-07-12T06:06:19;5.70;;;5.20;;
13349;SDS011;6744;53.190;6.576;2022-07-12T06:08:44;5.03;;;4.63;;
13349;SDS011;6744;53.190;6.576;2022-07-12T06:11:09;5.10;;;4.60;;
13349;SDS011;6744;53.190;6.576;2022-07-12T06:13:35;4.77;;;4.37;;
13349;SDS011;6744;53.190;6.576;2022-07-12T06:16:00;4.70;;;4.40;;
13349;SDS011;6744;53.190;6.576;2022-07-12T06:18:25;4.33;;;4.03;;
13349;SDS011;6744;53.190;6.576;2022-07-12T06:20:51;4.53;;;4.13;;
13349;SDS011;6744;53.190;6.576;2022-07-12T06:23:16;4.77;;;4.37;;
13349;SDS011;6744;53.190;6.576;2022-07-12T06:25:42;5.33;;;4.83;;
13349;SDS011;6744;53.190;6.576;2022-07-12T06:28:07;4.50;;;4.20;;
13349;SDS011;6744;53.190;6.576;2022-07-12T06:30:33;4.90;;;4.50;;
13349;SDS011;6744;53.190;6.576;2022-07-12T06:32:58;4.80;;;4.40;;
13349;SDS011;6744;53.190;6.576;2022-07-12T06:35:24;4.93;;;4.37;;
13349;SDS011;6744;53.190;6.576;2022-07-12T06:37:49;4.43;;;4.13;;
13349;SDS011;6744;53.190;6.576;2022-07-12T06:40:14;4.57;;;4.17;;
13349;SDS011;6744;53.190;6.576;2022-07-12T06:42:42;5.00;;;4.50;;
13349;SDS011;6744;53.190;6.576;2022-07-12T06:45:08;4.20;;;3.90;;
13349;SDS011;6744;53.190;6.576;2022-07-12T06:47:34;4.50;;;4.10;;
13349;SDS011;6744;53.190;6.576;2022-07-12T06:49:59;3.70;;;3.40;;
13349;SDS011;6744;53.190;6.576;2022-07-12T06:52:24;4.73;;;4.33;;
13349;SDS011;6744;53.190;6.576;2022-07-12T06:54:50;4.07;;;3.67;;
13349;SDS011;6744;53.190;6.576;2022-07-12T06:57:15;4.07;;;3.77;;
13349;SDS011;6744;53.190;6.576;2022-07-12T06:59:41;4.30;;;4.00;;
13349;SDS011;6744;53.190;6.576;2022-07-12T07:02:06;4.00;;;3.70;;
13349;SDS011;6744;53.190;6.576;2022-07-12T07:04:31;3.50;;;3.20;;
13349;SDS011;6744;53.190;6.576;2022-07-12T07:06:57;3.70;;;3.40;;
13349;SDS011;6744;53.190;6.576;2022-07-12T07:09:22;3.23;;;2.93;;
13349;SDS011;6744;53.190;6.576;2022-07-12T07:11:47;3.73;;;3.43;;
13349;SDS011;6744;53.190;6.576;2022-07-12T07:14:13;5.23;;;3.40;;
13349;SDS011;6744;53.190;6.576;2022-07-12T07:16:38;3.37;;;3.17;;
13349;SDS011;6744;53.190;6.576;2022-07-12T07:19:03;3.40;;;3.10;;
13349;SDS011;6744;53.190;6.576;2022-07-12T07:21:30;3.27;;;2.97;;
13349;SDS011;6744;53.190;6.576;2022-07-12T07:23:56;3.70;;;2.73;;
13349;SDS011;6744;53.190;6.576;2022-07-12T07:26:21;3.83;;;3.13;;
13349;SDS011;6744;53.190;6.576;2022-07-12T07:28:47;3.30;;;3.00;;
13349;SDS011;6744;53.190;6.576;2022-07-12T07:31:34;3.67;;;2.90;;
13349;SDS011;6744;53.190;6.576;2022-07-12T07:34:00;2.97;;;2.77;;
13349;SDS011;6744;53.190;6.576;2022-07-12T07:36:26;2.60;;;2.40;;
13349;SDS011;6744;53.190;6.576;2022-07-12T07:38:51;2.30;;;2.10;;
13349;SDS011;6744;53.190;6.576;2022-07-12T07:41:16;2.40;;;2.17;;
13349;SDS011;6744;53.190;6.576;2022-07-12T07:43:42;3.03;;;2.43;;
13349;SDS011;6744;53.190;6.576;2022-07-12T07:46:07;2.20;;;2.10;;
13349;SDS011;6744;53.190;6.576;2022-07-12T07:48:33;3.03;;;2.70;;
13349;SDS011;6744;53.190;6.576;2022-07-12T07:50:58;2.50;;;2.30;;
13349;SDS011;6744;53.190;6.576;2022-07-12T07:53:23;2.33;;;2.13;;
13349;SDS011;6744;53.190;6.576;2022-07-12T07:55:49;1.87;;;1.70;;
13349;SDS011;6744;53.190;6.576;2022-07-12T07:58:15;2.67;;;2.47;;
13349;SDS011;6744;53.190;6.576;2022-07-12T08:00:41;2.50;;;2.30;;
13349;SDS011;6744;53.190;6.576;2022-07-12T08:03:06;2.30;;;2.00;;
13349;SDS011;6744;53.190;6.576;2022-07-12T08:05:31;2.20;;;1.97;;
13349;SDS011;6744;53.190;6.576;2022-07-12T08:07:57;2.40;;;2.20;;
13349;SDS011;6744;53.190;6.576;2022-07-12T08:10:23;2.20;;;1.97;;
13349;SDS011;6744;53.190;6.576;2022-07-12T08:12:48;2.47;;;2.00;;
13349;SDS011;6744;53.190;6.576;2022-07-12T08:15:14;2.23;;;1.97;;
13349;SDS011;6744;53.190;6.576;2022-07-12T08:17:39;1.83;;;1.73;;
13349;SDS011;6744;53.190;6.576;2022-07-12T08:20:04;1.70;;;1.60;;
13349;SDS011;6744;53.190;6.576;2022-07-12T08:22:30;1.70;;;1.60;;
13349;SDS011;6744;53.190;6.576;2022-07-12T08:24:56;2.33;;;2.13;;
13349;SDS011;6744;53.190;6.576;2022-07-12T08:27:21;2.23;;;2.10;;
13349;SDS011;6744;53.190;6.576;2022-07-12T08:29:47;2.50;;;1.70;;
13349;SDS011;6744;53.190;6.576;2022-07-12T08:32:12;1.40;;;1.30;;
13349;SDS011;6744;53.190;6.576;2022-07-12T08:34:38;1.53;;;1.43;;
13349;SDS011;6744;53.190;6.576;2022-07-12T08:37:03;1.40;;;1.30;;
13349;SDS011;6744;53.190;6.576;2022-07-12T08:39:29;1.60;;;1.50;;
13349;SDS011;6744;53.190;6.576;2022-07-12T08:41:54;1.90;;;1.80;;
13349;SDS011;6744;53.190;6.576;2022-07-12T08:44:20;1.63;;;1.30;;
13349;SDS011;6744;53.190;6.576;2022-07-12T08:46:45;1.50;;;1.40;;
13349;SDS011;6744;53.190;6.576;2022-07-12T08:49:12;1.60;;;1.40;;
13349;SDS011;6744;53.190;6.576;2022-07-12T08:51:37;2.70;;;1.70;;
13349;SDS011;6744;53.190;6.576;2022-07-12T08:54:09;1.77;;;1.63;;
13349;SDS011;6744;53.190;6.576;2022-07-12T08:56:37;1.50;;;1.40;;
13349;SDS011;6744;53.190;6.576;2022-07-12T09:04:12;2.33;;;2.10;;
13349;SDS011;6744;53.190;6.576;2022-07-12T09:06:41;2.73;;;2.43;;
13349;SDS011;6744;53.190;6.576;2022-07-12T09:09:07;2.73;;;1.97;;
13349;SDS011;6744;53.190;6.576;2022-07-12T09:11:34;2.17;;;1.90;;
13349;SDS011;6744;53.190;6.576;2022-07-12T09:14:00;2.10;;;2.00;;
13349;SDS011;6744;53.190;6.576;2022-07-12T09:16:27;1.70;;;1.60;;
13349;SDS011;6744;53.190;6.576;2022-07-12T09:19:12;1.90;;;1.80;;
13349;SDS011;6744;53.190;6.576;2022-07-12T09:21:45;1.60;;;1.50;;
13349;SDS011;6744;53.190;6.576;2022-07-12T09:24:15;1.80;;;1.70;;
13349;SDS011;6744;53.190;6.576;2022-07-12T09:26:41;2.60;;;1.90;;
13349;SDS011;6744;53.190;6.576;2022-07-12T09:29:07;1.80;;;1.70;;
13349;SDS011;6744;53.190;6.576;2022-07-12T09:31:41;2.13;;;2.03;;
13349;SDS011;6744;53.190;6.576;2022-07-12T09:34:28;2.30;;;2.10;;
13349;SDS011;6744;53.190;6.576;2022-07-12T09:37:12;2.87;;;2.67;;
13349;SDS011;6744;53.190;6.576;2022-07-12T09:39:38;2.00;;;1.90;;
13349;SDS011;6744;53.190;6.576;2022-07-12T09:42:04;1.80;;;1.70;;
13349;SDS011;6744;53.190;6.576;2022-07-12T09:44:32;1.90;;;1.80;;
13349;SDS011;6744;53.190;6.576;2022-07-12T09:46:58;2.00;;;1.90;;
13349;SDS011;6744;53.190;6.576;2022-07-12T09:49:24;4.07;;;2.50;;
13349;SDS011;6744;53.190;6.576;2022-07-12T09:51:49;2.20;;;1.80;;
13349;SDS011;6744;53.190;6.576;2022-07-12T09:54:19;2.87;;;1.60;;
13349;SDS011;6744;53.190;6.576;2022-07-12T09:56:50;1.90;;;1.60;;
13349;SDS011;6744;53.190;6.576;2022-07-12T09:59:17;2.27;;;2.07;;
13349;SDS011;6744;53.190;6.576;2022-07-12T10:01:45;2.00;;;1.60;;
13349;SDS011;6744;53.190;6.576;2022-07-12T10:04:11;1.47;;;1.37;;
13349;SDS011;6744;53.190;6.576;2022-07-12T10:06:39;1.40;;;1.30;;
13349;SDS011;6744;53.190;6.576;2022-07-12T10:09:05;1.60;;;1.50;;
13349;SDS011;6744;53.190;6.576;2022-07-12T10:11:31;3.40;;;1.90;;
13349;SDS011;6744;53.190;6.576;2022-07-12T10:13:56;1.60;;;1.50;;
13349;SDS011;6744;53.190;6.576;2022-07-12T10:16:26;1.77;;;1.50;;
13349;SDS011;6744;53.190;6.576;2022-07-12T10:19:20;1.43;;;1.33;;
13349;SDS011;6744;53.190;6.576;2022-07-12T10:21:49;1.00;;;0.90;;
13349;SDS011;6744;53.190;6.576;2022-07-12T10:26:56;1.13;;;1.00;;
13349;SDS011;6744;53.190;6.576;2022-07-12T10:29:25;1.37;;;1.27;;
13349;SDS011;6744;53.190;6.576;2022-07-12T10:31:50;1.30;;;1.07;;
13349;SDS011;6744;53.190;6.576;2022-07-12T10:34:20;1.60;;;1.17;;
13349;SDS011;6744;53.190;6.576;2022-07-12T10:39:27;1.07;;;1.00;;
13349;SDS011;6744;53.190;6.576;2022-07-12T10:46:59;1.07;;;1.00;;
13349;SDS011;6744;53.190;6.576;2022-07-12T10:49:26;1.10;;;0.87;;
13349;SDS011;6744;53.190;6.576;2022-07-12T10:54:36;1.03;;;0.80;;
13349;SDS011;6744;53.190;6.576;2022-07-12T10:57:05;1.03;;;1.00;;
13349;SDS011;6744;53.190;6.576;2022-07-12T10:59:33;0.80;;;0.80;;
13349;SDS011;6744;53.190;6.576;2022-07-12T11:01:59;1.37;;;0.70;;
13349;SDS011;6744;53.190;6.576;2022-07-12T11:04:25;1.27;;;0.60;;
13349;SDS011;6744;53.190;6.576;2022-07-12T11:06:50;0.60;;;0.60;;
13349;SDS011;6744;53.190;6.576;2022-07-12T11:09:20;0.90;;;0.60;;
13349;SDS011;6744;53.190;6.576;2022-07-12T11:11:47;0.63;;;0.63;;
13349;SDS011;6744;53.190;6.576;2022-07-12T11:16:49;1.80;;;0.70;;
13349;SDS011;6744;53.190;6.576;2022-07-12T11:19:20;0.70;;;0.70;;
13349;SDS011;6744;53.190;6.576;2022-07-12T11:21:46;0.70;;;0.70;;
13349;SDS011;6744;53.190;6.576;2022-07-12T11:24:18;1.33;;;0.70;;
13349;SDS011;6744;53.190;6.576;2022-07-12T11:26:44;1.50;;;0.90;;
13349;SDS011;6744;53.190;6.576;2022-07-12T11:29:10;0.67;;;0.67;;
13349;SDS011;6744;53.190;6.576;2022-07-12T11:31:36;0.67;;;0.67;;
13349;SDS011;6744;53.190;6.576;2022-07-12T11:34:02;0.70;;;0.70;;
13349;SDS011;6744;53.190;6.576;2022-07-12T11:36:27;0.67;;;0.60;;
13349;SDS011;6744;53.190;6.576;2022-07-12T11:38:54;1.23;;;0.60;;
13349;SDS011;6744;53.190;6.576;2022-07-12T11:41:19;1.13;;;0.60;;
13349;SDS011;6744;53.190;6.576;2022-07-12T11:43:44;0.63;;;0.63;;
13349;SDS011;6744;53.190;6.576;2022-07-12T11:46:10;1.30;;;0.60;;
13349;SDS011;6744;53.190;6.576;2022-07-12T11:48:36;0.50;;;0.50;;
13349;SDS011;6744;53.190;6.576;2022-07-12T11:51:02;1.33;;;0.90;;
13349;SDS011;6744;53.190;6.576;2022-07-12T11:53:29;1.50;;;0.60;;
13349;SDS011;6744;53.190;6.576;2022-07-12T11:55:56;0.80;;;0.80;;
13349;SDS011;6744;53.190;6.576;2022-07-12T11:58:23;0.87;;;0.70;;
13349;SDS011;6744;53.190;6.576;2022-07-12T12:00:49;0.50;;;0.50;;
13349;SDS011;6744;53.190;6.576;2022-07-12T12:03:15;0.80;;;0.80;;
13349;SDS011;6744;53.190;6.576;2022-07-12T12:05:45;1.10;;;0.90;;
13349;SDS011;6744;53.190;6.576;2022-07-12T12:08:12;1.00;;;0.83;;
13349;SDS011;6744;53.190;6.576;2022-07-12T12:10:39;0.97;;;0.67;;
13349;SDS011;6744;53.190;6.576;2022-07-12T12:13:15;1.53;;;0.70;;
13349;SDS011;6744;53.190;6.576;2022-07-12T12:15:41;1.17;;;0.70;;
13349;SDS011;6744;53.190;6.576;2022-07-12T12:18:14;2.47;;;0.70;;
13349;SDS011;6744;53.190;6.576;2022-07-12T12:20:39;0.57;;;0.50;;
13349;SDS011;6744;53.190;6.576;2022-07-12T12:23:18;1.83;;;0.80;;
13349;SDS011;6744;53.190;6.576;2022-07-12T12:25:44;1.53;;;0.60;;
13349;SDS011;6744;53.190;6.576;2022-07-12T12:28:11;0.70;;;0.60;;
13349;SDS011;6744;53.190;6.576;2022-07-12T12:30:47;1.07;;;0.70;;
13349;SDS011;6744;53.190;6.576;2022-07-12T12:33:32;1.20;;;0.50;;
13349;SDS011;6744;53.190;6.576;2022-07-12T12:36:14;1.37;;;0.60;;
13349;SDS011;6744;53.190;6.576;2022-07-12T12:38:40;1.03;;;0.50;;
13349;SDS011;6744;53.190;6.576;2022-07-12T12:41:07;1.73;;;0.60;;
13349;SDS011;6744;53.190;6.576;2022-07-12T12:43:32;0.67;;;0.50;;
13349;SDS011;6744;53.190;6.576;2022-07-12T12:45:58;0.40;;;0.40;;
13349;SDS011;6744;53.190;6.576;2022-07-12T12:48:24;1.13;;;0.70;;
13349;SDS011;6744;53.190;6.576;2022-07-12T12:50:52;0.70;;;0.70;;
13349;SDS011;6744;53.190;6.576;2022-07-12T12:53:24;0.70;;;0.60;;
13349;SDS011;6744;53.190;6.576;2022-07-12T12:55:50;0.60;;;0.60;;
13349;SDS011;6744;53.190;6.576;2022-07-12T12:58:17;1.17;;;0.70;;
13349;SDS011;6744;53.190;6.576;2022-07-12T13:00:47;0.73;;;0.50;;
13349;SDS011;6744;53.190;6.576;2022-07-12T13:03:15;1.13;;;0.60;;
13349;SDS011;6744;53.190;6.576;2022-07-12T13:05:45;0.80;;;0.80;;
13349;SDS011;6744;53.190;6.576;2022-07-12T13:08:11;1.43;;;0.60;;
13349;SDS011;6744;53.190;6.576;2022-07-12T13:10:38;0.63;;;0.60;;
13349;SDS011;6744;53.190;6.576;2022-07-12T13:13:04;0.83;;;0.70;;
13349;SDS011;6744;53.190;6.576;2022-07-12T13:15:30;0.77;;;0.70;;
13349;SDS011;6744;53.190;6.576;2022-07-12T13:17:56;0.97;;;0.80;;
13349;SDS011;6744;53.190;6.576;2022-07-12T13:20:22;0.60;;;0.60;;
13349;SDS011;6744;53.190;6.576;2022-07-12T13:22:49;1.23;;;0.73;;
13349;SDS011;6744;53.190;6.576;2022-07-12T13:25:14;1.00;;;0.90;;
13349;SDS011;6744;53.190;6.576;2022-07-12T13:27:40;1.17;;;1.00;;
13349;SDS011;6744;53.190;6.576;2022-07-12T13:30:10;1.33;;;0.80;;
13349;SDS011;6744;53.190;6.576;2022-07-12T13:32:36;1.90;;;0.90;;
13349;SDS011;6744;53.190;6.576;2022-07-12T13:35:03;2.07;;;1.10;;
13349;SDS011;6744;53.190;6.576;2022-07-12T13:37:29;1.60;;;0.87;;
13349;SDS011;6744;53.190;6.576;2022-07-12T13:39:55;1.20;;;1.00;;
13349;SDS011;6744;53.190;6.576;2022-07-12T13:42:35;1.63;;;0.87;;
13349;SDS011;6744;53.190;6.576;2022-07-12T13:45:15;2.23;;;0.87;;
13349;SDS011;6744;53.190;6.576;2022-07-12T13:47:42;2.03;;;1.30;;
13349;SDS011;6744;53.190;6.576;2022-07-12T13:50:08;1.43;;;1.00;;
13349;SDS011;6744;53.190;6.576;2022-07-12T13:52:35;2.33;;;1.20;;
13349;SDS011;6744;53.190;6.576;2022-07-12T13:55:00;2.40;;;1.27;;
13349;SDS011;6744;53.190;6.576;2022-07-12T13:57:26;1.60;;;1.10;;
13349;SDS011;6744;53.190;6.576;2022-07-12T13:59:51;1.50;;;1.40;;
13349;SDS011;6744;53.190;6.576;2022-07-12T14:02:17;2.10;;;1.10;;
13349;SDS011;6744;53.190;6.576;2022-07-12T14:04:43;1.80;;;1.03;;
13349;SDS011;6744;53.190;6.576;2022-07-12T14:07:08;1.87;;;1.00;;
13349;SDS011;6744;53.190;6.576;2022-07-12T14:09:34;1.37;;;1.00;;
13349;SDS011;6744;53.190;6.576;2022-07-12T14:11:59;1.57;;;1.20;;
13349;SDS011;6744;53.190;6.576;2022-07-12T14:14:26;1.20;;;1.10;;
13349;SDS011;6744;53.190;6.576;2022-07-12T14:17:11;1.27;;;1.10;;
13349;SDS011;6744;53.190;6.576;2022-07-12T14:19:36;1.47;;;1.37;;
13349;SDS011;6744;53.190;6.576;2022-07-12T14:22:02;1.10;;;1.00;;
13349;SDS011;6744;53.190;6.576;2022-07-12T14:24:28;2.27;;;1.20;;
13349;SDS011;6744;53.190;6.576;2022-07-12T14:26:53;1.10;;;1.00;;
13349;SDS011;6744;53.190;6.576;2022-07-12T14:29:18;1.57;;;1.20;;
13349;SDS011;6744;53.190;6.576;2022-07-12T14:31:44;1.00;;;0.97;;
13349;SDS011;6744;53.190;6.576;2022-07-12T14:34:12;2.33;;;1.27;;
13349;SDS011;6744;53.190;6.576;2022-07-12T14:36:38;1.80;;;1.00;;
13349;SDS011;6744;53.190;6.576;2022-07-12T14:39:03;1.80;;;1.10;;
13349;SDS011;6744;53.190;6.576;2022-07-12T14:41:29;1.57;;;0.90;;
13349;SDS011;6744;53.190;6.576;2022-07-12T14:43:54;1.73;;;1.10;;
13349;SDS011;6744;53.190;6.576;2022-07-12T14:46:20;1.00;;;0.90;;
13349;SDS011;6744;53.190;6.576;2022-07-12T14:48:45;1.37;;;1.00;;
13349;SDS011;6744;53.190;6.576;2022-07-12T14:51:10;1.57;;;1.00;;
13349;SDS011;6744;53.190;6.576;2022-07-12T14:53:36;1.03;;;0.80;;
13349;SDS011;6744;53.190;6.576;2022-07-12T14:56:01;0.97;;;0.90;;
13349;SDS011;6744;53.190;6.576;2022-07-12T14:58:27;2.00;;;0.90;;
13349;SDS011;6744;53.190;6.576;2022-07-12T15:00:55;1.23;;;0.80;;
13349;SDS011;6744;53.190;6.576;2022-07-12T15:03:20;0.87;;;0.70;;
13349;SDS011;6744;53.190;6.576;2022-07-12T15:05:46;0.70;;;0.70;;
13349;SDS011;6744;53.190;6.576;2022-07-12T15:08:11;0.97;;;0.80;;
13349;SDS011;6744;53.190;6.576;2022-07-12T15:10:37;1.20;;;0.80;;
13349;SDS011;6744;53.190;6.576;2022-07-12T15:13:02;4.00;;;1.13;;
13349;SDS011;6744;53.190;6.576;2022-07-12T15:15:28;2.20;;;1.00;;
13349;SDS011;6744;53.190;6.576;2022-07-12T15:17:53;1.00;;;1.00;;
13349;SDS011;6744;53.190;6.576;2022-07-12T15:20:18;1.53;;;1.10;;